Terminal Aerodrome Forecast
Issued by NWS Sterling, VA

Current Version | Previous Version | Text Only | Print | Product List | Glossary On
Versions: 1 2 3 4 5 6 7 8 9 10 11 12 13 14
000
FTUS41 KLWX 280800 AAA
TAFIAD
TAF AMD
KIAD 280859Z 2809/2912 00000KT P6SM BKN060
     FM281500 28005KT P6SM -SHRA OVC050
     FM281700 31004KT 3SM -RA OVC035
     FM282300 32005KT 6SM -RA OVC015
     FM290600 35006KT P6SM OVC020=

USA.gov is the U.S. government's official web portal to all federal, state and local government web resources and services.